createdAt,value
2023-04-20T00:01:01.478Z,60.22
2023-04-20T00:03:28.641Z,61.23
2023-04-20T00:05:55.775Z,61.45
2023-04-20T00:08:22.398Z,61.11
2023-04-20T00:10:49.036Z,60.89
2023-04-20T00:13:16.112Z,60.96
2023-04-20T00:15:42.850Z,60.87
2023-04-20T00:18:09.602Z,61.09
2023-04-20T00:20:36.849Z,59.61
2023-04-20T00:23:03.806Z,60.33
2023-04-20T00:25:31.796Z,60.95
2023-04-20T00:27:58.468Z,60.39
2023-04-20T00:30:25.161Z,62.42
2023-04-20T00:32:52.014Z,62.26
2023-04-20T00:35:18.800Z,62.36
2023-04-20T00:37:45.608Z,62.79
2023-04-20T00:40:12.449Z,62.79
2023-04-20T00:42:40.994Z,62.04
2023-04-20T00:45:08.507Z,62.45
2023-04-20T00:47:37.372Z,62.17
2023-04-20T00:50:04.782Z,62.54
2023-04-20T00:52:32.563Z,62.03
2023-04-20T00:54:59.508Z,62.12
2023-04-20T00:57:26.862Z,61.92
2023-04-20T00:59:53.562Z,62.49
2023-04-20T01:02:22.791Z,62.39
2023-04-20T01:04:49.943Z,61.90
2023-04-20T01:07:16.897Z,62.11
2023-04-20T01:09:43.685Z,62.76
2023-04-20T01:12:11.667Z,62.56
2023-04-20T01:14:38.412Z,61.91
2023-04-20T01:17:06.074Z,61.45
2023-04-20T01:19:33.405Z,61.95
2023-04-20T01:22:02.328Z,61.14
2023-04-20T01:24:29.023Z,60.53
2023-04-20T01:26:56.361Z,60.83
2023-04-20T01:29:23.059Z,60.90
2023-04-20T01:31:49.789Z,61.17
2023-04-20T01:34:17.723Z,61.20
2023-04-20T01:36:45.713Z,60.46
2023-04-20T01:39:12.622Z,61.28
2023-04-20T01:41:39.768Z,60.67
2023-04-20T01:44:06.460Z,62.54
2023-04-20T01:46:33.180Z,62.01
2023-04-20T01:48:59.949Z,61.13
2023-04-20T01:51:27.765Z,61.54
2023-04-20T01:53:54.640Z,60.49
2023-04-20T01:56:21.370Z,61.23
2023-04-20T01:58:49.323Z,60.86
2023-04-20T02:01:16.144Z,61.06
2023-04-20T02:03:43.366Z,62.13
2023-04-20T02:06:10.320Z,61.28
2023-04-20T02:08:43.207Z,61.82
2023-04-20T02:11:10.147Z,61.07
2023-04-20T02:13:37.141Z,62.20
2023-04-20T02:16:04.048Z,60.66
2023-04-20T02:18:32.921Z,60.10
2023-04-20T02:21:01.277Z,60.44
2023-04-20T02:23:28.309Z,60.22
2023-04-20T02:25:55.641Z,61.45
2023-04-20T02:28:22.397Z,60.10
2023-04-20T02:30:49.116Z,60.10
2023-04-20T02:33:15.819Z,59.74
2023-04-20T02:35:42.478Z,60.22
2023-04-20T02:38:10.979Z,61.33
2023-04-20T02:40:39.092Z,60.30
2023-04-20T02:43:06.152Z,61.82
2023-04-20T02:45:33.626Z,61.08
2023-04-20T02:48:00.780Z,61.05
2023-04-20T02:50:30.589Z,62.65
2023-04-20T02:53:06.695Z,63.74
2023-04-20T02:55:36.146Z,63.10
2023-04-20T02:58:11.224Z,62.25
2023-04-20T03:01:01.882Z,62.77
2023-04-20T03:03:30.416Z,63.44
2023-04-20T03:05:58.860Z,62.19
2023-04-20T03:08:25.811Z,62.66
2023-04-20T03:10:53.640Z,63.03
2023-04-20T03:13:20.680Z,63.20
2023-04-20T03:15:52.276Z,64.00
2023-04-20T03:18:40.228Z,63.39
2023-04-20T03:21:07.015Z,63.01
2023-04-20T03:23:34.285Z,64.28
2023-04-20T03:26:05.307Z,64.21
2023-04-20T03:28:41.622Z,64.04
2023-04-20T03:31:10.861Z,64.98
2023-04-20T03:33:37.753Z,65.73
2023-04-20T03:36:05.998Z,65.95
2023-04-20T03:38:32.742Z,65.55
2023-04-20T03:53:31.378Z,64.85
2023-04-20T03:55:59.512Z,65.21
2023-04-20T03:58:26.675Z,64.50
2023-04-20T04:01:13.102Z,65.34
2023-04-20T04:03:44.326Z,64.96
2023-04-20T04:06:11.957Z,64.78
2023-04-20T04:08:38.807Z,64.43
2023-04-20T04:11:05.781Z,65.45
2023-04-20T04:13:34.416Z,65.56
2023-04-20T04:16:02.838Z,65.31
2023-04-20T04:18:32.412Z,65.38
2023-04-20T04:21:04.586Z,65.39
2023-04-20T04:23:31.536Z,66.28
2023-04-20T04:26:05.837Z,66.62
2023-04-20T04:28:35.578Z,65.50
2023-04-20T04:31:14.205Z,66.15
2023-04-20T04:33:41.082Z,65.74
2023-04-20T04:36:11.027Z,65.29
2023-04-20T04:38:39.397Z,65.93
2023-04-20T04:41:06.150Z,65.50
2023-04-20T04:43:33.830Z,66.08
2023-04-20T04:46:10.388Z,67.48
2023-04-20T04:48:37.871Z,66.80
2023-04-20T04:51:05.210Z,65.78
2023-04-20T04:53:32.152Z,65.18
2023-04-20T04:55:58.814Z,65.43
2023-04-20T04:58:25.791Z,66.05
2023-04-20T05:00:52.855Z,65.58
2023-04-20T05:03:19.915Z,64.88
2023-04-20T05:05:46.723Z,67.22
2023-04-20T05:08:13.361Z,67.59
2023-04-20T05:10:40.060Z,66.09
2023-04-20T05:13:06.859Z,66.12
2023-04-20T05:15:33.825Z,65.44
2023-04-20T05:18:02.319Z,67.50
2023-04-20T05:20:29.265Z,67.20
2023-04-20T05:22:56.024Z,65.59
2023-04-20T05:25:22.676Z,64.89
2023-04-20T05:27:49.409Z,63.97
2023-04-20T05:30:21.430Z,64.13
2023-04-20T05:32:51.545Z,65.53
2023-04-20T05:35:19.968Z,65.19
2023-04-20T05:37:47.903Z,64.63
2023-04-20T05:40:15.439Z,64.60
2023-04-20T05:42:42.382Z,63.99
2023-04-20T05:45:09.864Z,65.52
2023-04-20T05:47:36.719Z,65.16
2023-04-20T05:50:04.452Z,64.37
2023-04-20T05:52:31.417Z,63.83
2023-04-20T05:54:59.534Z,63.88
2023-04-20T05:57:26.357Z,64.23
2023-04-20T05:59:55.426Z,64.04
2023-04-20T06:02:22.488Z,64.45
2023-04-20T06:04:49.530Z,63.08
2023-04-20T06:07:16.294Z,61.83
2023-04-20T06:09:44.519Z,61.67
2023-04-20T06:12:11.242Z,63.74
2023-04-20T06:14:37.936Z,62.36
2023-04-20T06:17:04.778Z,63.04
2023-04-20T06:19:31.945Z,61.75
2023-04-20T06:22:00.807Z,62.32
2023-04-20T06:24:28.014Z,62.69
2023-04-20T06:26:55.035Z,61.97
2023-04-20T06:29:21.854Z,61.53
2023-04-20T06:31:48.760Z,62.03
2023-04-20T06:34:16.268Z,62.36
2023-04-20T06:36:43.839Z,61.43
2023-04-20T06:39:13.342Z,61.66
2023-04-20T06:41:40.017Z,62.61
2023-04-20T06:44:07.420Z,60.97
2023-04-20T06:46:34.247Z,58.83
2023-04-20T06:49:01.366Z,59.11
2023-04-20T06:51:29.167Z,60.57
2023-04-20T06:53:56.320Z,59.81
2023-04-20T06:56:23.048Z,58.44
2023-04-20T06:58:50.026Z,59.65
2023-04-20T07:01:17.007Z,59.93
2023-04-20T07:03:44.171Z,60.71
2023-04-20T07:06:11.819Z,61.49
2023-04-20T07:08:39.657Z,59.96
2023-04-20T07:11:06.429Z,60.26
2023-04-20T07:13:33.832Z,57.66
2023-04-20T07:16:01.224Z,57.85
2023-04-20T07:18:28.216Z,56.61
2023-04-20T07:20:55.132Z,56.01
2023-04-20T07:23:21.827Z,56.31
2023-04-20T07:25:48.624Z,54.16
2023-04-20T07:28:15.453Z,53.04
2023-04-20T07:30:43.367Z,51.94
2023-04-20T07:33:11.191Z,51.87
2023-04-20T07:35:38.061Z,50.70
2023-04-20T07:38:04.877Z,50.81
2023-04-20T07:40:31.645Z,50.66
2023-04-20T07:42:58.413Z,51.09
2023-04-20T07:45:25.269Z,52.17
2023-04-20T07:47:54.113Z,51.59
2023-04-20T07:50:21.031Z,51.92
2023-04-20T07:52:47.716Z,52.51
2023-04-20T07:55:15.655Z,51.19
2023-04-20T07:57:42.585Z,51.76
2023-04-20T08:00:10.213Z,50.28
2023-04-20T08:02:39.988Z,51.47
2023-04-20T08:05:08.808Z,50.25
2023-04-20T08:07:36.207Z,50.52
2023-04-20T08:10:03.163Z,50.28
2023-04-20T08:12:29.932Z,49.48
2023-04-20T08:15:00.619Z,50.72
2023-04-20T08:17:28.179Z,49.64
2023-04-20T08:19:55.139Z,50.67
2023-04-20T08:22:21.918Z,48.18
2023-04-20T08:24:48.933Z,48.44
2023-04-20T08:27:15.721Z,46.70
2023-04-20T08:29:42.425Z,48.45
2023-04-20T08:32:09.377Z,47.76
2023-04-20T08:34:36.390Z,46.92
2023-04-20T08:37:03.688Z,45.73
2023-04-20T08:39:30.498Z,48.26
2023-04-20T08:41:57.727Z,46.35
2023-04-20T08:44:24.966Z,46.73
2023-04-20T08:46:51.849Z,46.50
2023-04-20T08:49:19.851Z,44.49
2023-04-20T08:51:47.924Z,42.43
2023-04-20T08:54:14.999Z,44.37
2023-04-20T08:56:47.568Z,43.15
2023-04-20T08:59:15.606Z,43.77
2023-04-20T09:01:43.284Z,42.19
2023-04-20T09:04:22.030Z,44.83
2023-04-20T09:06:51.724Z,45.28
2023-04-20T09:09:19.769Z,41.82
2023-04-20T09:11:47.071Z,41.52
2023-04-20T09:14:19.478Z,40.84
2023-04-20T09:17:05.128Z,42.77
2023-04-20T09:19:32.123Z,41.95
2023-04-20T09:22:01.268Z,42.04
2023-04-20T09:24:35.734Z,43.48
2023-04-20T09:27:15.029Z,41.03
2023-04-20T09:29:41.747Z,43.12
2023-04-20T09:32:08.715Z,41.93
2023-04-20T09:34:45.145Z,43.32
2023-04-20T09:37:15.930Z,41.65
2023-04-20T09:39:47.047Z,41.64
2023-04-20T09:42:15.700Z,42.37
2023-04-20T09:44:43.339Z,41.24
2023-04-20T09:47:21.442Z,41.86
2023-04-20T09:49:48.416Z,40.67
2023-04-20T09:52:18.361Z,40.04
2023-04-20T09:54:45.401Z,38.04
2023-04-20T09:57:13.912Z,39.70
2023-04-20T09:59:46.812Z,38.95
2023-04-20T10:02:14.405Z,39.41
2023-04-20T10:04:57.417Z,40.08
2023-04-20T10:07:28.219Z,40.72
2023-04-20T10:10:06.484Z,39.46
2023-04-20T10:12:33.668Z,40.10
2023-04-20T10:15:01.332Z,40.78
2023-04-20T10:17:32.646Z,39.43
2023-04-20T10:19:59.656Z,38.27
2023-04-20T10:22:33.468Z,38.70
2023-04-20T10:25:14.591Z,38.59
2023-04-20T10:27:57.273Z,39.48
2023-04-20T10:30:26.067Z,39.09
2023-04-20T10:33:11.359Z,38.18
2023-04-20T10:35:55.277Z,38.54
2023-04-20T10:38:33.109Z,37.69
2023-04-20T10:41:10.445Z,37.58
2023-04-20T10:43:42.079Z,39.33
2023-04-20T10:46:23.588Z,37.33
2023-04-20T10:48:58.363Z,37.49
2023-04-20T10:51:26.225Z,38.06
2023-04-20T10:54:08.378Z,38.50
2023-04-20T10:56:40.146Z,37.18
2023-04-20T10:59:14.465Z,38.96
2023-04-20T11:01:41.858Z,35.78
2023-04-20T11:04:10.656Z,35.73
2023-04-20T11:06:41.997Z,36.83
2023-04-20T11:09:19.786Z,36.25
2023-04-20T11:11:46.989Z,35.71
2023-04-20T11:14:13.936Z,37.63
2023-04-20T11:16:50.741Z,37.26
2023-04-20T11:19:37.081Z,36.90
2023-04-20T11:22:06.365Z,38.06
2023-04-20T11:24:34.590Z,37.03
2023-04-20T11:27:02.330Z,36.68
2023-04-20T11:29:30.207Z,37.28
2023-04-20T11:31:57.645Z,37.28
2023-04-20T11:34:24.448Z,38.75
2023-04-20T11:36:51.595Z,38.28
2023-04-20T11:39:29.622Z,38.52
2023-04-20T11:41:57.284Z,35.96
2023-04-20T11:44:25.968Z,38.42
2023-04-20T11:46:57.049Z,35.44
2023-04-20T11:49:25.517Z,35.68
2023-04-20T11:51:52.365Z,35.91
2023-04-20T11:54:19.273Z,34.76
2023-04-20T11:56:46.579Z,34.30
2023-04-20T11:59:19.734Z,36.58
2023-04-20T12:01:47.863Z,37.79
2023-04-20T12:04:15.645Z,38.18
2023-04-20T12:06:42.743Z,38.53
2023-04-20T12:09:09.680Z,38.14
2023-04-20T12:11:36.368Z,38.59
2023-04-20T12:14:04.546Z,37.15
2023-04-20T12:16:31.744Z,37.78
2023-04-20T12:18:58.583Z,35.73
2023-04-20T12:21:25.375Z,37.27
2023-04-20T12:23:52.611Z,35.10
2023-04-20T12:26:19.354Z,35.95
2023-04-20T12:28:46.012Z,37.57
2023-04-20T12:31:12.838Z,37.62
2023-04-20T12:33:39.615Z,37.12
2023-04-20T12:36:06.645Z,37.19
2023-04-20T12:38:33.535Z,36.11
2023-04-20T12:41:00.567Z,37.64
2023-04-20T12:43:27.401Z,39.66
2023-04-20T12:45:54.344Z,38.98
2023-04-20T12:48:21.446Z,39.53
2023-04-20T12:50:48.425Z,39.72
2023-04-20T12:53:15.243Z,39.11
2023-04-20T12:55:42.127Z,39.83
2023-04-20T12:58:08.971Z,39.29
2023-04-20T13:00:36.739Z,39.11
2023-04-20T13:03:04.339Z,40.51
2023-04-20T13:05:31.134Z,39.78
2023-04-20T13:07:57.849Z,39.25
2023-04-20T13:10:24.519Z,38.53
2023-04-20T13:12:52.550Z,38.36
2023-04-20T13:15:31.850Z,38.67
2023-04-20T13:18:06.087Z,39.35
2023-04-20T13:20:33.039Z,38.32
2023-04-20T13:23:01.389Z,38.12
2023-04-20T13:25:32.639Z,38.78
2023-04-20T13:28:00.955Z,38.28
2023-04-20T13:30:27.776Z,37.50
2023-04-20T13:32:54.566Z,39.03
2023-04-20T13:35:21.704Z,38.51
2023-04-20T13:37:48.505Z,39.90
2023-04-20T13:40:15.377Z,39.14
2023-04-20T13:42:42.564Z,39.20
2023-04-20T13:45:10.383Z,40.37
2023-04-20T13:47:38.931Z,39.59
2023-04-20T13:50:07.415Z,41.42
2023-04-20T13:52:34.500Z,41.45
2023-04-20T13:55:01.378Z,43.03
2023-04-20T13:57:28.155Z,42.50
2023-04-20T13:59:54.911Z,44.47
2023-04-20T14:02:21.708Z,44.15
2023-04-20T14:04:48.902Z,44.52
2023-04-20T14:07:15.766Z,44.24
2023-04-20T14:09:44.351Z,46.58
2023-04-20T14:12:11.722Z,45.92
2023-04-20T14:14:38.825Z,48.95
2023-04-20T14:17:05.677Z,48.42
2023-04-20T14:19:32.647Z,50.57
2023-04-20T14:21:59.433Z,51.38
2023-04-20T14:24:26.224Z,50.60
2023-04-20T14:26:53.062Z,51.52
2023-04-20T14:29:20.138Z,50.44
2023-04-20T14:31:46.970Z,51.06
2023-04-20T14:34:14.262Z,50.03
2023-04-20T14:36:41.202Z,49.53
2023-04-20T14:39:08.283Z,51.92
2023-04-20T14:41:35.360Z,50.35
2023-04-20T14:44:02.236Z,50.79
2023-04-20T14:46:29.137Z,51.35
2023-04-20T14:48:56.080Z,50.83
2023-04-20T14:51:22.897Z,49.95
2023-04-20T14:53:49.901Z,53.62
2023-04-20T14:56:16.845Z,53.02
2023-04-20T14:58:43.616Z,53.41
2023-04-20T15:01:11.276Z,53.09
2023-04-20T15:03:38.243Z,50.01
2023-04-20T15:06:05.363Z,51.03
2023-04-20T15:08:32.209Z,52.94
2023-04-20T15:10:59.316Z,53.83
2023-04-20T15:13:26.249Z,51.48
2023-04-20T15:15:55.344Z,51.71
2023-04-20T15:18:22.540Z,52.60
2023-04-20T15:20:52.485Z,53.37
2023-04-20T15:23:19.882Z,54.68
2023-04-20T15:25:46.720Z,53.87
2023-04-20T15:28:13.484Z,51.36
2023-04-20T15:30:40.621Z,52.35
2023-04-20T15:33:07.460Z,53.67
2023-04-20T15:35:35.170Z,51.55
2023-04-20T15:38:02.927Z,51.80
2023-04-20T15:40:29.962Z,51.25
2023-04-20T15:42:56.762Z,52.42
2023-04-20T15:45:23.477Z,53.53
2023-04-20T15:47:51.433Z,54.54
2023-04-20T15:50:18.323Z,52.95
2023-04-20T15:52:45.793Z,51.64
2023-04-20T15:55:12.630Z,51.38
2023-04-20T15:57:39.559Z,52.66
2023-04-20T16:00:08.248Z,53.91
2023-04-20T16:02:38.488Z,52.73
2023-04-20T16:05:07.114Z,52.26
2023-04-20T16:07:33.901Z,50.77
2023-04-20T16:10:02.124Z,53.23
2023-04-20T16:12:29.264Z,53.38
2023-04-20T16:14:57.298Z,52.80
2023-04-20T16:17:24.247Z,53.66
2023-04-20T16:19:51.118Z,52.91
2023-04-20T16:22:17.987Z,53.31
2023-04-20T16:24:45.050Z,53.08
2023-04-20T16:27:11.836Z,52.23
2023-04-20T16:29:38.777Z,52.24
2023-04-20T16:32:06.587Z,52.08
2023-04-20T16:34:33.425Z,52.35
2023-04-20T16:37:00.140Z,54.38
2023-04-20T16:39:26.903Z,52.42
2023-04-20T16:41:54.158Z,54.37
2023-04-20T16:44:21.234Z,55.61
2023-04-20T16:46:51.331Z,54.90
2023-04-20T16:49:19.462Z,53.46
2023-04-20T16:51:46.136Z,55.57
2023-04-20T16:54:12.979Z,54.91
2023-04-20T16:56:40.817Z,55.75
2023-04-20T16:59:08.150Z,55.14
2023-04-20T17:01:35.679Z,53.90
2023-04-20T17:04:02.722Z,55.08
2023-04-20T17:06:29.585Z,53.98
2023-04-20T17:09:01.382Z,56.97
2023-04-20T17:11:28.193Z,56.64
2023-04-20T17:13:54.917Z,56.96
2023-04-20T17:16:21.658Z,56.29
2023-04-20T17:18:48.678Z,57.23
2023-04-20T17:21:15.430Z,57.55
2023-04-20T17:23:42.111Z,60.10
2023-04-20T17:26:09.154Z,61.75
2023-04-20T17:28:38.136Z,61.07
2023-04-20T17:31:04.925Z,59.77
2023-04-20T17:33:31.778Z,62.46
2023-04-20T17:36:00.136Z,62.59
2023-04-20T17:38:26.851Z,61.18
2023-04-20T17:40:53.792Z,63.71
2023-04-20T17:43:20.508Z,61.68
2023-04-20T17:45:50.751Z,60.48
2023-04-20T17:48:17.557Z,60.61
2023-04-20T17:50:48.954Z,62.04
2023-04-20T17:53:15.636Z,60.88
2023-04-20T17:55:42.389Z,60.54
2023-04-20T17:58:09.118Z,60.08
2023-04-20T18:00:35.996Z,62.45
2023-04-20T18:03:02.865Z,61.79
2023-04-20T18:05:30.069Z,60.44
2023-04-20T18:07:56.805Z,60.63
2023-04-20T18:10:23.480Z,60.32
2023-04-20T18:12:50.391Z,60.65
2023-04-20T18:15:17.138Z,61.28
2023-04-20T18:17:44.666Z,60.79
2023-04-20T18:20:12.115Z,60.38
2023-04-20T18:22:39.196Z,60.66
2023-04-20T18:25:06.476Z,62.59
2023-04-20T18:27:33.346Z,63.83
2023-04-20T18:30:00.293Z,64.40
2023-04-20T18:32:27.651Z,64.18
2023-04-20T18:34:54.385Z,65.01
2023-04-20T18:37:21.284Z,64.48
2023-04-20T18:39:48.047Z,66.79
2023-04-20T18:42:14.847Z,66.90
2023-04-20T18:44:41.574Z,68.19
2023-04-20T18:47:08.519Z,67.59
2023-04-20T18:49:35.653Z,69.15
2023-04-20T18:52:02.788Z,70.05
2023-04-20T18:54:29.481Z,70.27
2023-04-20T18:56:56.674Z,68.75
2023-04-20T18:59:24.697Z,67.45
2023-04-20T19:01:52.540Z,67.38
2023-04-20T19:04:20.190Z,69.30
2023-04-20T19:06:47.074Z,70.75
2023-04-20T19:09:14.125Z,71.64
2023-04-20T19:11:40.821Z,70.05
2023-04-20T19:14:07.735Z,73.81
2023-04-20T19:16:34.848Z,72.04
2023-04-20T19:19:01.648Z,71.11
2023-04-20T19:21:28.377Z,73.19
2023-04-20T19:23:56.318Z,73.52
2023-04-20T19:26:24.432Z,74.51
2023-04-20T19:28:51.545Z,73.46
2023-04-20T19:31:18.378Z,72.35
2023-04-20T19:33:45.319Z,72.09
2023-04-20T19:36:12.005Z,73.20
2023-04-20T19:38:39.073Z,71.90
2023-04-20T19:41:06.285Z,72.14
2023-04-20T19:43:33.087Z,75.09
2023-04-20T19:45:59.947Z,75.62
2023-04-20T19:49:05.706Z,74.89
2023-04-20T19:51:32.845Z,74.67
2023-04-20T19:54:01.704Z,73.53
2023-04-20T19:56:28.469Z,73.45
2023-04-20T19:58:55.172Z,74.67
2023-04-20T20:01:21.865Z,75.67
2023-04-20T20:03:48.767Z,76.71
2023-04-20T20:06:15.823Z,75.12
2023-04-20T20:08:42.679Z,74.17
2023-04-20T20:11:09.547Z,76.84
2023-04-20T20:13:36.343Z,75.34
2023-04-20T20:16:04.099Z,74.61
2023-04-20T20:18:31.228Z,74.79
2023-04-20T20:20:57.886Z,74.28
2023-04-20T20:23:24.533Z,73.42
2023-04-20T20:25:51.426Z,73.57
2023-04-20T20:28:18.256Z,73.70
2023-04-20T20:30:45.394Z,75.03
2023-04-20T20:33:12.850Z,74.12
2023-04-20T20:35:39.927Z,73.73
2023-04-20T20:38:07.643Z,72.30
2023-04-20T20:40:35.512Z,72.74
2023-04-20T20:43:02.510Z,73.46
2023-04-20T20:45:29.978Z,72.88
2023-04-20T20:47:56.876Z,72.48
2023-04-20T20:50:24.456Z,72.38
2023-04-20T20:52:51.154Z,75.30
2023-04-20T20:59:36.132Z,73.45
2023-04-20T21:02:03.655Z,73.14
2023-04-20T21:04:56.883Z,73.69
2023-04-20T21:07:23.509Z,73.09
2023-04-20T21:09:50.619Z,73.54
2023-04-20T21:12:17.241Z,72.72
2023-04-20T21:14:43.872Z,73.00
2023-04-20T21:17:11.007Z,73.21
2023-04-20T21:19:37.697Z,72.74
2023-04-20T21:22:04.347Z,72.63
2023-04-20T21:24:31.049Z,72.58
2023-04-20T21:26:58.121Z,71.89
2023-04-20T21:29:24.810Z,72.40
2023-04-20T21:31:52.254Z,71.57
2023-04-20T21:34:19.097Z,72.53
2023-04-20T21:36:45.894Z,72.42
2023-04-20T21:39:12.647Z,71.85
2023-04-20T21:41:39.333Z,72.03
2023-04-20T21:44:05.991Z,72.09
2023-04-20T21:46:33.297Z,71.69
2023-04-20T21:49:00.401Z,72.09
2023-04-20T21:51:27.815Z,74.31
2023-04-20T21:53:54.569Z,74.30
2023-04-20T21:56:21.558Z,72.96
2023-04-20T21:58:48.749Z,72.71
2023-04-20T22:01:15.527Z,72.33
2023-04-20T22:03:42.472Z,71.87
2023-04-20T22:06:09.352Z,73.53
2023-04-20T22:08:39.919Z,74.47
2023-04-20T22:11:07.184Z,75.15
2023-04-20T22:13:34.257Z,73.48
2023-04-20T22:16:01.019Z,74.56
2023-04-20T22:18:27.965Z,75.16
2023-04-20T22:20:54.720Z,74.83
2023-04-20T22:23:21.513Z,74.52
2023-04-20T22:25:48.125Z,75.01
2023-04-20T22:28:15.371Z,74.68
2023-04-20T22:30:42.860Z,74.75
2023-04-20T22:33:09.787Z,74.28
2023-04-20T22:35:36.571Z,75.99
2023-04-20T22:38:03.248Z,76.05
2023-04-20T22:40:30.069Z,77.14
2023-04-20T22:42:56.707Z,76.63
2023-04-20T22:45:23.299Z,75.53
2023-04-20T22:47:50.011Z,75.21
2023-04-20T22:50:16.930Z,75.07
2023-04-20T22:52:43.893Z,75.12
2023-04-20T22:55:10.993Z,74.43
2023-04-20T22:57:39.028Z,74.18
2023-04-20T23:00:10.461Z,75.25
2023-04-20T23:02:37.901Z,74.73
2023-04-20T23:05:05.957Z,77.08
2023-04-20T23:07:33.423Z,75.65
2023-04-20T23:10:01.476Z,76.60
2023-04-20T23:12:29.555Z,76.01
2023-04-20T23:14:56.812Z,75.49
2023-04-20T23:17:23.730Z,75.18
2023-04-20T23:19:51.280Z,75.17
2023-04-20T23:22:18.576Z,75.48
2023-04-20T23:24:45.431Z,74.78
2023-04-20T23:27:12.130Z,74.62
2023-04-20T23:29:38.829Z,77.29
2023-04-20T23:32:06.096Z,76.60
2023-04-20T23:34:33.145Z,75.22
2023-04-20T23:36:59.843Z,76.79
2023-04-20T23:39:26.757Z,75.75
2023-04-20T23:41:53.597Z,75.65
2023-04-20T23:44:20.274Z,75.16
2023-04-20T23:46:46.946Z,75.12
2023-04-20T23:49:13.764Z,74.64
2023-04-20T23:51:40.883Z,74.86
2023-04-20T23:54:07.557Z,74.86
2023-04-20T23:56:34.481Z,75.21
2023-04-20T23:59:01.212Z,74.55
